Time;durP1;ratioP1;P1;durP2;ratioP2;P2;SDS_P1;SDS_P2;PMS_P1;PMS_P2;Temp;Humidity;BMP_temperature;BMP_pressure;BME280_temperature;BME280_humidity;BME280_pressure;Samples;Min_cycle;Max_cycle;Signal;HPM_P1;HPM_P2
2021/03/31 00:00:40;;;;;;;39.13;19.12;;;;;;;;;;4391526;32;20288;-68
2021/03/31 00:03:08;;;;;;;36.83;18.67;;;;;;;;;;4391655;32;20524;-66
2021/03/31 00:05:33;;;;;;;41.95;19.80;;;;;;;;;;4405587;32;20287;-66
2021/03/31 00:07:58;;;;;;;44.60;19.65;;;;;;;;;;4405214;32;20457;-66
2021/03/31 00:10:38;;;;;;;41.05;19.27;;;;;;;;;;4405428;32;20543;-67
2021/03/31 00:13:03;;;;;;;42.33;19.58;;;;;;;;;;4405058;32;20134;-67
2021/03/31 00:15:29;;;;;;;39.75;19.42;;;;;;;;;;4405062;32;20157;-67
2021/03/31 00:17:54;;;;;;;37.45;17.95;;;;;;;;;;4406139;32;20224;-68
2021/03/31 00:20:19;;;;;;;40.40;18.02;;;;;;;;;;4404462;32;20137;-67
2021/03/31 00:22:44;;;;;;;39.85;18.50;;;;;;;;;;4405349;32;20198;-67
2021/03/31 00:25:11;;;;;;;41.03;18.70;;;;;;;;;;4406132;32;20134;-67
2021/03/31 00:27:36;;;;;;;39.58;19.45;;;;;;;;;;4404819;32;20122;-67
2021/03/31 00:30:02;;;;;;;34.63;17.10;;;;;;;;;;4392038;32;20450;-68
2021/03/31 00:32:27;;;;;;;40.92;17.90;;;;;;;;;;4404534;32;20585;-67
2021/03/31 00:34:52;;;;;;;40.00;18.58;;;;;;;;;;4404672;32;20245;-66
2021/03/31 00:37:18;;;;;;;39.38;17.90;;;;;;;;;;4405753;32;20131;-67
2021/03/31 00:39:43;;;;;;;41.63;19.15;;;;;;;;;;4405379;32;20527;-66
2021/03/31 00:42:08;;;;;;;42.15;19.08;;;;;;;;;;4406278;32;20154;-67
2021/03/31 00:44:33;;;;;;;39.53;19.27;;;;;;;;;;4404138;32;20488;-68
2021/03/31 00:46:58;;;;;;;39.33;18.95;;;;;;;;;;4405857;32;20126;-65
2021/03/31 00:49:23;;;;;;;41.53;19.65;;;;;;;;;;4405573;32;20249;-67
2021/03/31 00:51:49;;;;;;;43.65;19.42;;;;;;;;;;4404603;32;20134;-66
2021/03/31 00:54:14;;;;;;;38.90;19.37;;;;;;;;;;4404794;32;20226;-66
2021/03/31 00:56:40;;;;;;;39.30;19.87;;;;;;;;;;4408614;32;20160;-67
2021/03/31 00:59:05;;;;;;;40.17;19.50;;;;;;;;;;4407211;32;20208;-66
2021/03/31 01:01:30;;;;;;;40.95;19.73;;;;;;;;;;4408962;32;20142;-67
2021/03/31 01:03:55;;;;;;;40.12;18.85;;;;;;;;;;4407282;32;20222;-67
2021/03/31 01:06:21;;;;;;;42.60;19.37;;;;;;;;;;4407292;32;20145;-68
2021/03/31 01:08:46;;;;;;;39.58;18.25;;;;;;;;;;4393225;32;20304;-66
2021/03/31 01:11:14;;;;;;;38.33;19.08;;;;;;;;;;4407548;32;20146;-66
2021/03/31 01:13:47;;;;;;;40.05;18.27;;;;;;;;;;4406932;32;20169;-66
2021/03/31 01:16:16;;;;;;;39.03;18.17;;;;;;;;;;4408221;32;20443;-67
2021/03/31 01:18:44;;;;;;;42.97;19.15;;;;;;;;;;4408372;32;20145;-67
2021/03/31 01:21:21;;;;;;;41.20;18.65;;;;;;;;;;4407141;32;20524;-67
2021/03/31 01:23:52;;;;;;;36.78;17.50;;;;;;;;;;4407127;32;20482;-67
2021/03/31 01:26:29;;;;;;;40.42;18.80;;;;;;;;;;4406871;32;20196;-67
2021/03/31 01:29:02;;;;;;;41.33;18.73;;;;;;;;;;4408893;32;20431;-67
2021/03/31 01:31:30;;;;;;;41.55;18.70;;;;;;;;;;4408966;32;20142;-68
2021/03/31 01:34:07;;;;;;;41.37;20.45;;;;;;;;;;4406585;32;20234;-68
2021/03/31 01:36:33;;;;;;;38.45;19.12;;;;;;;;;;4408450;32;20153;-67
2021/03/31 01:38:59;;;;;;;40.17;19.50;;;;;;;;;;4407024;32;20130;-66
2021/03/31 01:41:27;;;;;;;40.75;18.70;;;;;;;;;;4406762;32;20130;-65
2021/03/31 01:43:54;;;;;;;43.00;19.50;;;;;;;;;;4406871;32;20138;-66
2021/03/31 01:46:22;;;;;;;39.45;18.90;;;;;;;;;;4393491;32;20184;-65
2021/03/31 01:48:47;;;;;;;37.63;18.85;;;;;;;;;;4407280;32;20131;-66
2021/03/31 01:51:13;;;;;;;38.63;18.05;;;;;;;;;;4408512;32;20161;-66
2021/03/31 01:53:39;;;;;;;42.17;19.80;;;;;;;;;;4407199;32;20138;-66
2021/03/31 01:56:05;;;;;;;39.05;18.27;;;;;;;;;;4406893;32;20478;-66
2021/03/31 01:58:30;;;;;;;44.20;20.25;;;;;;;;;;4401591;32;20197;-66
2021/03/31 02:00:56;;;;;;;41.28;18.52;;;;;;;;;;4403368;32;20539;-66
2021/03/31 02:03:22;;;;;;;40.17;18.87;;;;;;;;;;4406308;32;20551;-68
2021/03/31 02:05:48;;;;;;;43.13;18.62;;;;;;;;;;4406788;32;20157;-66
2021/03/31 02:08:14;;;;;;;39.88;20.12;;;;;;;;;;4408212;32;20174;-67
2021/03/31 02:10:40;;;;;;;41.88;19.42;;;;;;;;;;4408340;32;20130;-67
2021/03/31 02:13:05;;;;;;;41.45;19.20;;;;;;;;;;4407282;32;20201;-67
2021/03/31 02:15:32;;;;;;;42.62;19.50;;;;;;;;;;4407414;32;20183;-67
2021/03/31 02:17:58;;;;;;;40.40;19.35;;;;;;;;;;4407900;32;20162;-68
2021/03/31 02:20:24;;;;;;;42.10;19.47;;;;;;;;;;4406554;32;20166;-68
2021/03/31 02:22:50;;;;;;;41.40;18.92;;;;;;;;;;4406688;32;20569;-67
2021/03/31 02:25:16;;;;;;;40.90;19.20;;;;;;;;;;4406121;32;20194;-65
2021/03/31 02:27:41;;;;;;;43.83;18.87;;;;;;;;;;4402397;32;20139;-67
2021/03/31 02:30:08;;;;;;;42.20;19.37;;;;;;;;;;4392757;32;20127;-65
2021/03/31 02:32:34;;;;;;;38.42;19.08;;;;;;;;;;4392264;32;20555;-66
2021/03/31 02:35:00;;;;;;;38.42;18.35;;;;;;;;;;4390620;32;20155;-66
2021/03/31 02:37:25;;;;;;;39.05;20.05;;;;;;;;;;4391630;32;20157;-65
2021/03/31 02:39:52;;;;;;;42.42;20.00;;;;;;;;;;4391478;32;20154;-65
2021/03/31 02:42:18;;;;;;;40.40;19.87;;;;;;;;;;4390499;32;20123;-66
2021/03/31 02:44:46;;;;;;;40.17;20.60;;;;;;;;;;4391183;32;20253;-67
2021/03/31 02:47:13;;;;;;;41.15;20.42;;;;;;;;;;4391406;32;20185;-66
2021/03/31 02:49:40;;;;;;;41.88;19.25;;;;;;;;;;4390938;32;20146;-66
2021/03/31 02:52:06;;;;;;;45.17;20.42;;;;;;;;;;4390633;32;20139;-66
2021/03/31 02:54:32;;;;;;;42.55;20.23;;;;;;;;;;4390782;32;20173;-65
2021/03/31 02:56:57;;;;;;;44.88;20.05;;;;;;;;;;4403427;32;20142;-65
2021/03/31 02:59:22;;;;;;;46.05;20.85;;;;;;;;;;4391665;32;20139;-65
2021/03/31 03:01:48;;;;;;;42.25;19.65;;;;;;;;;;4382521;32;20476;-66
2021/03/31 03:04:14;;;;;;;44.08;22.67;;;;;;;;;;4405488;32;20130;-66
2021/03/31 03:06:40;;;;;;;44.65;20.83;;;;;;;;;;4406645;32;20142;-66
2021/03/31 03:09:06;;;;;;;41.40;20.30;;;;;;;;;;4407023;32;20126;-66
2021/03/31 03:11:32;;;;;;;46.47;20.97;;;;;;;;;;4406010;32;20492;-67
2021/03/31 03:13:58;;;;;;;45.90;20.03;;;;;;;;;;4406019;32;20149;-66
2021/03/31 03:16:23;;;;;;;42.17;21.50;;;;;;;;;;4406768;32;20127;-66
2021/03/31 03:18:48;;;;;;;44.07;20.97;;;;;;;;;;4405633;32;20457;-66
2021/03/31 03:21:14;;;;;;;49.22;22.30;;;;;;;;;;4391987;32;20244;-66
2021/03/31 03:23:42;;;;;;;42.33;20.92;;;;;;;;;;4405200;32;20126;-65
2021/03/31 03:26:08;;;;;;;42.63;20.00;;;;;;;;;;4406624;32;20142;-67
2021/03/31 03:28:34;;;;;;;45.53;20.10;;;;;;;;;;4406030;32;20211;-65
2021/03/31 03:31:00;;;;;;;45.33;21.27;;;;;;;;;;4406037;32;20483;-66
2021/03/31 03:33:25;;;;;;;46.30;21.53;;;;;;;;;;4407036;32;20228;-66
2021/03/31 03:35:51;;;;;;;51.00;21.50;;;;;;;;;;4394772;32;20143;-67
2021/03/31 03:38:16;;;;;;;50.58;20.88;;;;;;;;;;4405765;32;20142;-66
2021/03/31 03:40:45;;;;;;;44.37;21.33;;;;;;;;;;4404400;32;20142;-66
2021/03/31 03:43:13;;;;;;;46.63;20.60;;;;;;;;;;4405013;32;20251;-65
2021/03/31 03:45:39;;;;;;;42.88;20.05;;;;;;;;;;4404477;32;20228;-67
2021/03/31 03:48:04;;;;;;;41.47;20.27;;;;;;;;;;4405673;32;20138;-65
2021/03/31 03:50:30;;;;;;;44.88;21.48;;;;;;;;;;4392560;32;20260;-66
2021/03/31 03:52:55;;;;;;;44.42;21.15;;;;;;;;;;4392519;32;20161;-67
2021/03/31 03:55:21;;;;;;;44.40;20.70;;;;;;;;;;4405579;32;20157;-66
2021/03/31 03:57:46;;;;;;;43.30;21.00;;;;;;;;;;4406787;32;20534;-66
2021/03/31 04:00:16;;;;;;;41.97;20.73;;;;;;;;;;4406767;32;20157;-66
2021/03/31 04:02:41;;;;;;;50.70;22.53;;;;;;;;;;4405708;32;20200;-64
2021/03/31 04:05:07;;;;;;;43.00;20.47;;;;;;;;;;4405534;32;20138;-65
2021/03/31 04:07:32;;;;;;;46.30;21.63;;;;;;;;;;4406105;32;20543;-66
2021/03/31 04:09:59;;;;;;;45.57;21.27;;;;;;;;;;4405113;32;20126;-64
2021/03/31 04:12:24;;;;;;;44.83;20.33;;;;;;;;;;4405886;32;20166;-69
2021/03/31 04:14:50;;;;;;;45.60;22.10;;;;;;;;;;4404874;32;20199;-66
2021/03/31 04:17:16;;;;;;;46.07;20.73;;;;;;;;;;4405070;32;20192;-64
2021/03/31 04:19:43;;;;;;;50.17;21.73;;;;;;;;;;4404858;32;20220;-65
2021/03/31 04:22:09;;;;;;;45.58;21.37;;;;;;;;;;4405985;32;20153;-65
2021/03/31 04:24:34;;;;;;;48.33;22.33;;;;;;;;;;4406267;32;20178;-65
2021/03/31 04:27:00;;;;;;;48.07;22.63;;;;;;;;;;4392400;32;20223;-66
2021/03/31 04:29:25;;;;;;;51.60;21.50;;;;;;;;;;4405193;32;20153;-65
2021/03/31 04:31:50;;;;;;;47.20;21.57;;;;;;;;;;4408102;32;20139;-67
2021/03/31 04:34:17;;;;;;;48.40;23.30;;;;;;;;;;4407588;32;20462;-65
2021/03/31 04:36:43;;;;;;;55.45;22.67;;;;;;;;;;4409108;32;20150;-66
2021/03/31 04:39:08;;;;;;;46.93;22.30;;;;;;;;;;4407742;32;20165;-65
2021/03/31 04:41:33;;;;;;;51.47;22.17;;;;;;;;;;4407984;32;20158;-64
2021/03/31 04:43:59;;;;;;;44.93;21.80;;;;;;;;;;4407576;32;20225;-64
2021/03/31 04:46:24;;;;;;;50.17;22.40;;;;;;;;;;4407083;32;20146;-65
2021/03/31 04:48:49;;;;;;;54.33;22.17;;;;;;;;;;4408466;32;20460;-68
2021/03/31 04:51:14;;;;;;;48.53;22.70;;;;;;;;;;4408013;32;20123;-65
2021/03/31 04:53:40;;;;;;;46.73;21.50;;;;;;;;;;4407258;32;20135;-66
2021/03/31 04:56:06;;;;;;;42.93;22.17;;;;;;;;;;4408857;32;20559;-65
2021/03/31 04:58:31;;;;;;;46.80;22.37;;;;;;;;;;4406615;32;20123;-64
2021/03/31 05:00:57;;;;;;;53.17;23.93;;;;;;;;;;4407093;32;20122;-68
2021/03/31 05:03:22;;;;;;;45.70;23.13;;;;;;;;;;4408600;32;20138;-66
2021/03/31 05:05:47;;;;;;;53.60;23.17;;;;;;;;;;4406734;32;20218;-66
2021/03/31 05:08:12;;;;;;;49.90;23.60;;;;;;;;;;4393776;32;20512;-64
2021/03/31 05:10:37;;;;;;;51.37;23.10;;;;;;;;;;4407198;32;20153;-66
2021/03/31 05:13:03;;;;;;;50.43;23.07;;;;;;;;;;4407555;32;20680;-66
2021/03/31 05:15:28;;;;;;;51.93;23.57;;;;;;;;;;4407586;32;20135;-64
2021/03/31 05:17:54;;;;;;;53.83;23.87;;;;;;;;;;4407581;32;20204;-69
2021/03/31 05:20:19;;;;;;;53.47;23.40;;;;;;;;;;4407120;32;20138;-65
2021/03/31 05:22:44;;;;;;;45.83;21.70;;;;;;;;;;4407032;32;20168;-65
2021/03/31 05:25:09;;;;;;;51.10;23.17;;;;;;;;;;4407494;32;20126;-66
2021/03/31 05:27:35;;;;;;;50.30;22.43;;;;;;;;;;4405923;32;20567;-65
2021/03/31 05:30:01;;;;;;;54.67;23.57;;;;;;;;;;4405922;32;20181;-64
2021/03/31 05:32:26;;;;;;;48.23;25.00;;;;;;;;;;4406756;32;20227;-65
2021/03/31 05:34:51;;;;;;;53.37;24.57;;;;;;;;;;4406931;32;20143;-66
2021/03/31 05:37:16;;;;;;;48.77;23.20;;;;;;;;;;4407148;32;20263;-64
2021/03/31 05:39:42;;;;;;;57.03;25.63;;;;;;;;;;4406525;32;20318;-63
2021/03/31 05:42:08;;;;;;;56.70;24.97;;;;;;;;;;4406681;32;20191;-62
2021/03/31 05:44:34;;;;;;;63.23;24.93;;;;;;;;;;4405890;32;20161;-65
2021/03/31 05:47:00;;;;;;;46.53;23.47;;;;;;;;;;4406251;32;20624;-66
2021/03/31 05:49:26;;;;;;;51.63;23.90;;;;;;;;;;4406438;32;20577;-66
2021/03/31 05:52:04;;;;;;;;;;;;;;;;;;;;;
2021/03/31 05:54:29;;;;;;;52.77;24.50;;;;;;;;;;4403518;32;20625;-64
2021/03/31 05:56:55;;;;;;;54.80;24.53;;;;;;;;;;4405835;32;20240;-65
2021/03/31 05:59:20;;;;;;;52.47;24.23;;;;;;;;;;4405856;32;20156;-67
2021/03/31 06:01:47;;;;;;;50.57;23.23;;;;;;;;;;4406607;32;20408;-63
2021/03/31 06:04:15;;;;;;;49.57;23.30;;;;;;;;;;4406182;32;20168;-66
2021/03/31 06:06:40;;;;;;;49.37;24.23;;;;;;;;;;4405569;32;20223;-63
2021/03/31 06:09:07;;;;;;;52.13;24.90;;;;;;;;;;4405792;32;20138;-62
2021/03/31 06:11:49;;;;;;;52.70;24.37;;;;;;;;;;4405378;32;20146;-65
2021/03/31 06:14:14;;;;;;;64.20;25.07;;;;;;;;;;4405600;32;20181;-62
2021/03/31 06:16:46;;;;;;;49.83;22.97;;;;;;;;;;4405208;32;20571;-64
2021/03/31 06:19:19;;;;;;;51.20;23.80;;;;;;;;;;4406218;32;20134;-64
2021/03/31 06:22:32;;;;;;;52.73;25.47;;;;;;;;;;4405717;32;20535;-62
2021/03/31 06:25:27;;;;;;;54.07;25.93;;;;;;;;;;4405361;32;20184;-64
2021/03/31 06:27:54;;;;;;;57.03;26.53;;;;;;;;;;4393117;32;20228;-63
2021/03/31 06:30:28;;;;;;;52.87;24.73;;;;;;;;;;4405137;32;20180;-62
2021/03/31 06:32:54;;;;;;;49.53;23.80;;;;;;;;;;4406957;32;20145;-64
2021/03/31 06:35:23;;;;;;;51.77;24.67;;;;;;;;;;4391822;32;20170;-63
2021/03/31 06:37:48;;;;;;;51.70;25.67;;;;;;;;;;4406473;32;20575;-65
2021/03/31 06:40:31;;;;;;;52.17;24.50;;;;;;;;;;4405421;32;20157;-62
2021/03/31 06:43:13;;;;;;;54.70;24.73;;;;;;;;;;4392028;32;20245;-66
2021/03/31 06:45:49;;;;;;;51.87;24.97;;;;;;;;;;4395121;32;20162;-63
2021/03/31 06:48:15;;;;;;;43.67;22.97;;;;;;;;;;4406472;32;20203;-64
2021/03/31 06:50:40;;;;;;;48.30;23.93;;;;;;;;;;4406029;32;20129;-64
2021/03/31 06:53:05;;;;;;;52.17;24.57;;;;;;;;;;4394781;32;20158;-64
2021/03/31 06:55:33;;;;;;;47.90;23.20;;;;;;;;;;4391075;32;20180;-62
2021/03/31 06:58:00;;;;;;;50.05;24.20;;;;;;;;;;4400213;32;20150;-65
2021/03/31 07:00:29;;;;;;;52.72;24.33;;;;;;;;;;4405184;32;20154;-64
2021/03/31 07:02:57;;;;;;;50.35;23.60;;;;;;;;;;4405724;32;20154;-64
2021/03/31 07:05:22;;;;;;;49.53;24.73;;;;;;;;;;4405264;32;20562;-63
2021/03/31 07:07:48;;;;;;;50.45;24.17;;;;;;;;;;4404510;32;20126;-67
2021/03/31 07:10:15;;;;;;;47.35;24.83;;;;;;;;;;4405016;32;20173;-66
2021/03/31 07:12:41;;;;;;;49.65;24.48;;;;;;;;;;4404864;32;20146;-64
2021/03/31 07:15:10;;;;;;;48.67;24.90;;;;;;;;;;4405000;32;20138;-63
2021/03/31 07:17:37;;;;;;;47.17;23.45;;;;;;;;;;4406082;32;20157;-63
2021/03/31 07:20:02;;;;;;;53.35;24.77;;;;;;;;;;4404922;32;20184;-60
2021/03/31 07:22:27;;;;;;;48.25;25.00;;;;;;;;;;4405125;32;20555;-60
2021/03/31 07:24:54;;;;;;;46.97;22.73;;;;;;;;;;4405970;32;20153;-63
2021/03/31 07:27:22;;;;;;;50.83;25.37;;;;;;;;;;4405718;32;20142;-66
2021/03/31 07:32:55;;;;;;;49.50;24.37;;;;;;;;;;4404532;32;20153;-65
2021/03/31 07:35:22;;;;;;;46.83;23.67;;;;;;;;;;4389812;32;20622;-64
2021/03/31 07:37:47;;;;;;;48.00;24.48;;;;;;;;;;4389915;32;20227;-67
2021/03/31 07:40:13;;;;;;;45.00;24.48;;;;;;;;;;4380905;32;20555;-64
2021/03/31 07:42:42;;;;;;;48.22;24.55;;;;;;;;;;4368227;32;20201;-63
2021/03/31 07:45:08;;;;;;;46.58;25.00;;;;;;;;;;4361218;32;20174;-66
2021/03/31 07:47:34;;;;;;;47.42;25.02;;;;;;;;;;4348242;32;20302;-65
2021/03/31 07:50:00;;;;;;;51.10;26.62;;;;;;;;;;4373578;32;20230;-66
2021/03/31 07:52:44;;;;;;;48.25;25.95;;;;;;;;;;4366059;32;20144;-64
2021/03/31 07:55:35;;;;;;;49.40;26.27;;;;;;;;;;4368955;32;20143;-64
2021/03/31 07:58:13;;;;;;;44.45;25.25;;;;;;;;;;4371357;32;20165;-66
2021/03/31 08:00:52;;;;;;;43.15;24.60;;;;;;;;;;4372976;32;20169;-65
2021/03/31 08:03:19;;;;;;;45.85;24.85;;;;;;;;;;4374410;32;20134;-66
2021/03/31 08:06:04;;;;;;;51.13;25.75;;;;;;;;;;4374470;32;20178;-64
2021/03/31 08:08:29;;;;;;;48.38;25.77;;;;;;;;;;4377077;32;20188;-64
2021/03/31 08:10:55;;;;;;;49.70;27.77;;;;;;;;;;4377076;32;20500;-66
2021/03/31 08:13:31;;;;;;;48.75;27.08;;;;;;;;;;4368488;32;20563;-66
2021/03/31 08:15:57;;;;;;;47.28;25.98;;;;;;;;;;4367959;32;20139;-66
2021/03/31 08:18:23;;;;;;;51.75;27.23;;;;;;;;;;4374671;32;20174;-67
2021/03/31 08:20:49;;;;;;;51.67;27.05;;;;;;;;;;4362675;32;20163;-63
2021/03/31 08:23:14;;;;;;;45.95;25.80;;;;;;;;;;4362620;32;20225;-64
2021/03/31 08:25:39;;;;;;;44.88;25.50;;;;;;;;;;4371223;32;20154;-61
2021/03/31 08:28:06;;;;;;;45.95;26.10;;;;;;;;;;4362848;32;20158;-62
2021/03/31 08:30:36;;;;;;;49.63;27.60;;;;;;;;;;4363508;32;20152;-63
2021/03/31 08:33:02;;;;;;;50.35;27.20;;;;;;;;;;4362879;32;20578;-67
2021/03/31 08:35:28;;;;;;;48.15;26.37;;;;;;;;;;4362964;32;20166;-66
2021/03/31 08:37:53;;;;;;;45.78;26.95;;;;;;;;;;4348805;33;20164;-65
2021/03/31 08:40:19;;;;;;;47.80;26.90;;;;;;;;;;4365703;32;20175;-67
2021/03/31 08:42:54;;;;;;;44.03;25.98;;;;;;;;;;4366653;32;20182;-66
2021/03/31 08:45:23;;;;;;;46.97;25.92;;;;;;;;;;4362234;32;20550;-64
2021/03/31 08:47:49;;;;;;;45.17;26.52;;;;;;;;;;4362094;32;20535;-66
2021/03/31 08:50:23;;;;;;;47.20;25.92;;;;;;;;;;4352617;32;20176;-61
2021/03/31 08:52:56;;;;;;;47.55;26.83;;;;;;;;;;4346294;33;20147;-67
2021/03/31 08:55:21;;;;;;;47.30;25.73;;;;;;;;;;4347153;33;20155;-66
2021/03/31 08:57:47;;;;;;;43.85;27.20;;;;;;;;;;4348067;33;20144;-64
2021/03/31 09:00:20;;;;;;;45.12;25.88;;;;;;;;;;4345278;33;20167;-68
2021/03/31 09:02:45;;;;;;;46.55;26.30;;;;;;;;;;4346885;33;20135;-66
2021/03/31 09:05:11;;;;;;;40.60;25.62;;;;;;;;;;4347541;33;20150;-68
2021/03/31 09:07:36;;;;;;;47.30;26.48;;;;;;;;;;4347304;33;20481;-63
2021/03/31 09:10:02;;;;;;;45.53;25.67;;;;;;;;;;4352775;33;20136;-66
2021/03/31 09:12:29;;;;;;;47.85;27.75;;;;;;;;;;4350113;32;20545;-66
2021/03/31 09:14:55;;;;;;;43.90;26.10;;;;;;;;;;4346912;33;20239;-65
2021/03/31 09:17:24;;;;;;;43.60;27.00;;;;;;;;;;4346056;33;20158;-65
2021/03/31 09:19:50;;;;;;;45.95;27.33;;;;;;;;;;4357690;33;20219;-66
2021/03/31 09:22:17;;;;;;;51.05;27.25;;;;;;;;;;4361345;32;20811;-66
2021/03/31 09:24:47;;;;;;;43.72;26.98;;;;;;;;;;4362221;32;20148;-67
2021/03/31 09:27:13;;;;;;;44.55;27.70;;;;;;;;;;4361481;32;20136;-64
2021/03/31 09:29:42;;;;;;;57.17;30.40;;;;;;;;;;4360662;32;20178;-67
2021/03/31 09:32:10;;;;;;;45.33;26.70;;;;;;;;;;4361188;32;20147;-66
2021/03/31 09:34:35;;;;;;;48.40;27.40;;;;;;;;;;4361372;32;20174;-66
2021/03/31 09:37:03;;;;;;;46.17;28.27;;;;;;;;;;4361791;32;20547;-67
2021/03/31 09:39:38;;;;;;;49.90;29.30;;;;;;;;;;4361585;32;20166;-65
2021/03/31 09:42:03;;;;;;;45.47;27.30;;;;;;;;;;4361622;32;20185;-69
2021/03/31 09:44:30;;;;;;;49.30;27.77;;;;;;;;;;4352567;32;20167;-67
2021/03/31 09:46:55;;;;;;;48.42;28.98;;;;;;;;;;4352233;32;20136;-68
2021/03/31 09:49:20;;;;;;;52.53;28.40;;;;;;;;;;4346273;33;20132;-68
2021/03/31 09:51:47;;;;;;;52.57;28.73;;;;;;;;;;4359326;33;20159;-65
2021/03/31 09:54:12;;;;;;;47.15;26.20;;;;;;;;;;4361124;32;20286;-68
2021/03/31 09:57:27;;;;;;;42.88;26.35;;;;;;;;;;4361670;32;20139;-67
2021/03/31 09:59:31;;;;;;;43.67;27.77;;;;;;;;;;4352078;32;20194;-67
2021/03/31 10:01:56;;;;;;;43.08;27.40;;;;;;;;;;4348355;32;20166;-66
2021/03/31 10:04:22;;;;;;;46.22;25.58;;;;;;;;;;4345720;33;20156;-65
2021/03/31 10:07:12;;;;;;;46.50;26.50;;;;;;;;;;4346222;33;20582;-67
2021/03/31 10:09:38;;;;;;;42.58;25.90;;;;;;;;;;4338126;33;20637;-67
2021/03/31 10:12:04;;;;;;;47.40;25.85;;;;;;;;;;4345849;33;20158;-67
2021/03/31 10:14:29;;;;;;;42.35;26.48;;;;;;;;;;4358504;33;20152;-65
2021/03/31 10:16:54;;;;;;;46.20;28.75;;;;;;;;;;4359687;33;20471;-66
2021/03/31 10:19:19;;;;;;;48.97;27.60;;;;;;;;;;4354118;33;20202;-68
2021/03/31 10:21:46;;;;;;;44.75;27.60;;;;;;;;;;4346048;33;20481;-65
2021/03/31 10:24:13;;;;;;;48.15;27.65;;;;;;;;;;4346296;33;20131;-68
2021/03/31 10:26:44;;;;;;;45.50;27.55;;;;;;;;;;4355433;33;20165;-67
2021/03/31 10:29:20;;;;;;;46.65;26.45;;;;;;;;;;4349072;32;20151;-63
2021/03/31 10:31:46;;;;;;;44.67;27.75;;;;;;;;;;4345730;33;20135;-66
2021/03/31 10:34:15;;;;;;;40.50;25.77;;;;;;;;;;4345872;33;20537;-67
2021/03/31 10:47:20;;;;;;;41.65;27.92;;;;;;;;;;4352240;32;20189;-63
2021/03/31 10:52:18;;;;;;;44.22;28.75;;;;;;;;;;4361620;32;20549;-67
2021/03/31 10:54:44;;;;;;;48.20;26.95;;;;;;;;;;4360391;32;20143;-65
2021/03/31 10:57:12;;;;;;;49.05;26.52;;;;;;;;;;4359118;32;20170;-66
2021/03/31 10:59:37;;;;;;;43.90;26.37;;;;;;;;;;4355641;32;20659;-66
2021/03/31 11:02:03;;;;;;;48.35;28.77;;;;;;;;;;4359086;32;20156;-67
2021/03/31 11:04:28;;;;;;;47.22;26.98;;;;;;;;;;4360470;32;20222;-63
2021/03/31 11:06:53;;;;;;;49.60;29.55;;;;;;;;;;4359064;32;20182;-66
2021/03/31 11:09:22;;;;;;;46.03;26.33;;;;;;;;;;4360424;32;20127;-66
2021/03/31 11:11:55;;;;;;;50.33;26.67;;;;;;;;;;4359450;32;20151;-67
2021/03/31 11:14:20;;;;;;;50.22;31.17;;;;;;;;;;4356731;32;20561;-67
2021/03/31 11:16:56;;;;;;;51.95;30.05;;;;;;;;;;4356017;32;20136;-67
2021/03/31 11:19:40;;;;;;;49.67;29.08;;;;;;;;;;4356617;32;20504;-68
2021/03/31 11:27:44;;;;;;;50.67;30.65;;;;;;;;;;4346413;33;20202;-65
2021/03/31 11:30:10;;;;;;;50.22;30.30;;;;;;;;;;4358484;32;20262;-67
2021/03/31 11:32:41;;;;;;;46.35;29.37;;;;;;;;;;4354150;32;20201;-66
2021/03/31 11:35:07;;;;;;;46.72;29.23;;;;;;;;;;4357980;32;20197;-67
2021/03/31 11:37:32;;;;;;;46.97;28.70;;;;;;;;;;4352319;32;20151;-64
2021/03/31 11:39:57;;;;;;;48.03;31.17;;;;;;;;;;4345310;32;20136;-66
2021/03/31 11:42:23;;;;;;;46.42;28.90;;;;;;;;;;4345326;33;20168;-67
2021/03/31 11:44:48;;;;;;;45.45;29.02;;;;;;;;;;4358093;32;20653;-63
2021/03/31 11:47:14;;;;;;;51.58;30.25;;;;;;;;;;4360214;32;20508;-67
2021/03/31 11:49:39;;;;;;;49.08;30.10;;;;;;;;;;4359587;32;20484;-70
2021/03/31 11:52:04;;;;;;;47.23;28.10;;;;;;;;;;4358419;33;20201;-62
2021/03/31 11:54:30;;;;;;;44.58;27.83;;;;;;;;;;4319269;32;20317;-66
2021/03/31 11:56:58;;;;;;;45.72;28.45;;;;;;;;;;4330136;33;20154;-66
2021/03/31 11:59:23;;;;;;;45.03;29.10;;;;;;;;;;4331637;33;20132;-68
2021/03/31 12:01:49;;;;;;;48.42;28.48;;;;;;;;;;4329543;33;20139;-65
2021/03/31 12:04:15;;;;;;;50.65;31.37;;;;;;;;;;4329878;33;20182;-68
2021/03/31 12:06:41;;;;;;;45.22;28.52;;;;;;;;;;4330108;33;20162;-66
2021/03/31 12:09:08;;;;;;;49.15;30.62;;;;;;;;;;4325702;33;20565;-61
2021/03/31 12:11:33;;;;;;;47.55;29.17;;;;;;;;;;4327248;33;20438;-65
2021/03/31 12:13:59;;;;;;;45.90;28.90;;;;;;;;;;4330229;33;20178;-65
2021/03/31 12:16:24;;;;;;;45.70;27.60;;;;;;;;;;4329596;33;20167;-67
2021/03/31 12:18:49;;;;;;;45.20;26.92;;;;;;;;;;4323796;33;20674;-69
2021/03/31 12:21:14;;;;;;;49.95;29.70;;;;;;;;;;4315960;33;20187;-65
2021/03/31 12:23:40;;;;;;;46.83;30.13;;;;;;;;;;4314822;33;20208;-68
2021/03/31 12:26:06;;;;;;;45.75;29.15;;;;;;;;;;4314568;33;20910;-67
2021/03/31 12:28:34;;;;;;;44.95;28.17;;;;;;;;;;4314683;33;20128;-65
2021/03/31 12:30:59;;;;;;;43.90;27.92;;;;;;;;;;4320523;33;20152;-69
2021/03/31 12:33:25;;;;;;;44.03;27.42;;;;;;;;;;4327495;33;20208;-67
2021/03/31 12:35:51;;;;;;;44.95;26.23;;;;;;;;;;4321231;33;20148;-65
2021/03/31 12:38:17;;;;;;;46.53;27.77;;;;;;;;;;4315687;33;20167;-63
2021/03/31 12:40:42;;;;;;;46.47;28.08;;;;;;;;;;4328463;33;20149;-69
2021/03/31 12:43:08;;;;;;;38.80;24.92;;;;;;;;;;4328559;33;20187;-63
2021/03/31 12:45:33;;;;;;;45.30;27.50;;;;;;;;;;4327176;33;20160;-64
2021/03/31 12:47:59;;;;;;;37.92;24.27;;;;;;;;;;4328842;33;20148;-67
2021/03/31 12:50:24;;;;;;;39.63;23.75;;;;;;;;;;4330187;33;20266;-67
2021/03/31 12:53:34;;;;;;;43.15;25.42;;;;;;;;;;4330590;33;20619;-67
2021/03/31 12:55:41;;;;;;;40.55;25.40;;;;;;;;;;4325471;33;20186;-66
2021/03/31 12:58:10;;;;;;;43.03;26.00;;;;;;;;;;4332044;33;20199;-68
2021/03/31 13:00:35;;;;;;;47.67;27.02;;;;;;;;;;4330846;33;20202;-68
2021/03/31 13:03:01;;;;;;;46.05;28.38;;;;;;;;;;4332085;33;20551;-68
2021/03/31 13:05:26;;;;;;;46.10;26.97;;;;;;;;;;4330911;33;20489;-67
2021/03/31 13:07:51;;;;;;;46.05;26.52;;;;;;;;;;4324901;33;20279;-69
2021/03/31 13:10:16;;;;;;;42.78;23.52;;;;;;;;;;4332714;33;20128;-68
2021/03/31 13:12:50;;;;;;;32.67;17.27;;;;;;;;;;4333051;33;20217;-68
2021/03/31 13:26:22;;;;;;;18.45;8.32;;;;;;;;;;4331240;33;20484;-66
2021/03/31 13:31:29;;;;;;;25.08;13.68;;;;;;;;;;4328617;33;20210;-68
2021/03/31 13:34:01;;;;;;;24.58;14.70;;;;;;;;;;4332162;33;20238;-65
2021/03/31 13:36:39;;;;;;;19.05;11.95;;;;;;;;;;4330446;33;20141;-65
2021/03/31 13:39:09;;;;;;;18.12;10.70;;;;;;;;;;4330599;33;20195;-68
2021/03/31 13:41:35;;;;;;;16.17;9.82;;;;;;;;;;4331283;33;20234;-68
2021/03/31 13:44:00;;;;;;;17.77;10.07;;;;;;;;;;4331320;33;20156;-64
2021/03/31 13:46:26;;;;;;;20.80;11.32;;;;;;;;;;4317136;33;20148;-68
2021/03/31 13:48:58;;;;;;;18.77;9.88;;;;;;;;;;4315856;33;20144;-68
2021/03/31 13:51:32;;;;;;;14.85;9.65;;;;;;;;;;4302867;33;20172;-63
2021/03/31 13:53:57;;;;;;;24.42;12.50;;;;;;;;;;4316998;33;20489;-68
2021/03/31 13:56:32;;;;;;;25.15;12.27;;;;;;;;;;4316198;33;20599;-68
2021/03/31 13:58:57;;;;;;;21.83;12.70;;;;;;;;;;4315681;33;20182;-68
2021/03/31 14:01:23;;;;;;;19.05;11.02;;;;;;;;;;4317559;33;20152;-68
2021/03/31 14:03:48;;;;;;;16.35;9.20;;;;;;;;;;4312333;33;20152;-67
2021/03/31 14:06:14;;;;;;;15.82;8.32;;;;;;;;;;4317183;33;20186;-65
2021/03/31 14:08:40;;;;;;;18.73;10.63;;;;;;;;;;4302429;33;20207;-68
2021/03/31 14:11:05;;;;;;;26.80;12.37;;;;;;;;;;4315792;33;20328;-65
2021/03/31 14:13:30;;;;;;;23.25;12.63;;;;;;;;;;4293268;33;20188;-67
2021/03/31 14:15:55;;;;;;;24.87;13.50;;;;;;;;;;4302511;33;20204;-68
2021/03/31 14:18:22;;;;;;;24.42;13.60;;;;;;;;;;4302656;33;20165;-68
2021/03/31 14:20:47;;;;;;;20.45;12.15;;;;;;;;;;4314212;33;20223;-67
2021/03/31 14:23:13;;;;;;;22.33;12.45;;;;;;;;;;4316038;33;20494;-68
2021/03/31 14:25:38;;;;;;;19.83;11.55;;;;;;;;;;4315485;33;20529;-67
2021/03/31 14:28:03;;;;;;;21.75;12.02;;;;;;;;;;4316036;33;20159;-66
2021/03/31 14:30:29;;;;;;;21.60;11.93;;;;;;;;;;4316386;33;20140;-69
2021/03/31 14:32:54;;;;;;;20.90;11.48;;;;;;;;;;4316265;33;20514;-65
2021/03/31 14:35:19;;;;;;;19.17;11.40;;;;;;;;;;4316459;33;20163;-66
2021/03/31 14:37:45;;;;;;;22.48;12.60;;;;;;;;;;4316533;33;20609;-64
2021/03/31 14:40:10;;;;;;;19.45;10.95;;;;;;;;;;4316765;33;20164;-67
2021/03/31 14:42:35;;;;;;;18.90;11.90;;;;;;;;;;4317397;33;20550;-67
2021/03/31 14:45:01;;;;;;;20.40;11.98;;;;;;;;;;4321716;33;20205;-66
2021/03/31 14:47:31;;;;;;;23.83;12.98;;;;;;;;;;4329229;33;21523;-69
2021/03/31 14:49:56;;;;;;;20.00;12.32;;;;;;;;;;4330996;33;20178;-67
2021/03/31 14:59:27;;;;;;;24.00;14.27;;;;;;;;;;4308856;33;20235;-66
2021/03/31 15:00:42;;;;;;;25.52;12.93;;;;;;;;;;4331341;33;20167;-69